createdAt,value
2022-10-26T04:23:03.110Z,100263.66
2022-10-26T04:28:06.078Z,100232.97
2022-10-26T04:45:55.199Z,100277.94
2022-10-26T04:51:01.033Z,100286.28
2022-10-26T04:56:06.787Z,100276.03
2022-10-26T05:01:08.426Z,100278.06
2022-10-26T05:06:11.405Z,100289.03
2022-10-26T05:11:13.078Z,100317.56
2022-10-26T05:16:16.363Z,100324.94
2022-10-26T05:21:19.959Z,100326.25
2022-10-26T05:26:25.291Z,100338.53
2022-10-26T05:31:29.893Z,100350.81
2022-10-26T05:36:32.214Z,100369.75
2022-10-26T05:41:33.955Z,100383.47
2022-10-26T05:46:35.659Z,100392.91
2022-10-26T05:51:37.645Z,100402.13
2022-10-26T05:56:40.842Z,100403.31
2022-10-26T06:02:09.592Z,100417.41
2022-10-26T06:07:14.716Z,100427.78
2022-10-26T06:12:19.341Z,100440.19
2022-10-26T06:17:49.111Z,100448.34
2022-10-26T06:23:17.962Z,100456.69
2022-10-26T06:28:38.822Z,100451.34
2022-10-26T06:33:41.231Z,100451.13
2022-10-26T06:38:44.717Z,100453.97
2022-10-26T06:43:46.813Z,100447.28
2022-10-26T06:49:08.709Z,100459.47
2022-10-26T06:54:27.705Z,100464.28
2022-10-26T06:59:53.245Z,100470.25
2022-10-26T07:04:54.792Z,100484.59
2022-10-26T07:09:56.340Z,100488.16
2022-10-26T07:14:57.918Z,100507.09
2022-10-26T07:19:59.488Z,100509.03
2022-10-26T07:25:03.072Z,100518.72
2022-10-26T07:30:05.490Z,100515.38
2022-10-26T07:35:07.395Z,100515.75
2022-10-26T07:40:09.193Z,100511.06
2022-10-26T07:45:11.045Z,100519.69
2022-10-26T07:50:13.005Z,100544.56
2022-10-26T07:55:14.718Z,100545.97
2022-10-26T08:00:16.447Z,100563.75
2022-10-26T08:05:18.094Z,100585.22
2022-10-26T08:10:19.777Z,100588.44
2022-10-26T08:15:21.459Z,100596.84
2022-10-26T08:20:22.984Z,100596.31
2022-10-26T08:25:26.084Z,100586.31
2022-10-26T08:30:30.275Z,100584.47
2022-10-26T08:35:32.982Z,100578.47
2022-10-26T08:40:40.017Z,100571.84
2022-10-26T08:45:48.862Z,100560.16
2022-10-26T08:50:54.614Z,100580.41
2022-10-26T08:56:11.553Z,100588.53
2022-10-26T09:01:13.516Z,100597.09
2022-10-26T09:06:26.774Z,100591.88
2022-10-26T09:12:07.595Z,100592.88
2022-10-26T09:17:12.605Z,100586.00
2022-10-26T09:22:22.112Z,100580.69
2022-10-26T09:27:28.778Z,100587.06
2022-10-26T09:32:40.766Z,100591.22
2022-10-26T09:37:51.804Z,100607.03
2022-10-26T09:43:10.231Z,100607.09
2022-10-26T09:48:39.727Z,100622.19
2022-10-26T09:53:41.233Z,100639.16
2022-10-26T09:58:50.825Z,100650.56
2022-10-26T10:04:14.182Z,100661.13
2022-10-26T10:09:24.278Z,100674.72
2022-10-26T10:14:29.056Z,100685.56
2022-10-26T10:19:33.211Z,100689.44
2022-10-26T10:24:41.614Z,100697.19
2022-10-26T10:29:45.673Z,100709.34
2022-10-26T10:34:52.612Z,100720.91
2022-10-26T10:39:59.525Z,100725.50
2022-10-26T10:45:02.949Z,100743.44
2022-10-26T10:50:20.344Z,100755.50
2022-10-26T10:55:22.649Z,100764.94
2022-10-26T11:00:25.616Z,100774.88
2022-10-26T11:06:00.265Z,100769.59
2022-10-26T11:11:11.955Z,100766.84
2022-10-26T11:16:29.097Z,100785.94
2022-10-26T11:21:33.657Z,100789.41
2022-10-26T11:26:43.667Z,100794.53
2022-10-26T11:31:54.569Z,100798.38
2022-10-26T11:37:03.669Z,100802.78
2022-10-26T11:42:41.379Z,100825.69
2022-10-26T11:47:49.990Z,100818.22
2022-10-26T11:53:15.755Z,100808.22
2022-10-26T11:58:17.739Z,100836.50
2022-10-26T12:03:27.031Z,100816.31
2022-10-26T12:08:53.206Z,100811.38
2022-10-26T12:14:15.824Z,100801.69
2022-10-26T12:19:24.832Z,100800.94
2022-10-26T12:24:35.505Z,100803.19
2022-10-26T12:29:45.983Z,100814.34
2022-10-26T12:35:00.360Z,100807.94
2022-10-26T12:40:33.218Z,100809.63
2022-10-26T12:45:34.850Z,100831.91
2022-10-26T12:50:36.536Z,100813.25
2022-10-26T12:55:50.011Z,100800.19
2022-10-26T13:01:00.773Z,100802.13
2022-10-26T13:06:14.620Z,100807.16
2022-10-26T13:11:19.241Z,100812.16
2022-10-26T13:16:20.951Z,100825.84
2022-10-26T13:21:24.526Z,100800.81
2022-10-26T13:26:28.056Z,100806.63
2022-10-26T13:31:32.738Z,100805.81
2022-10-26T13:36:56.054Z,100828.34
2022-10-26T13:41:59.665Z,100830.84
2022-10-26T13:47:05.041Z,100840.84
2022-10-26T13:52:15.724Z,100840.00
2022-10-26T13:57:34.326Z,100829.47
2022-10-26T14:02:42.910Z,100821.94
2022-10-26T14:08:16.892Z,100827.53
2022-10-26T14:13:23.571Z,100825.56
2022-10-26T14:18:28.333Z,100806.09
2022-10-26T14:23:55.790Z,100798.34
2022-10-26T14:29:00.263Z,100798.34
2022-10-26T14:34:04.694Z,100778.59
2022-10-26T14:44:58.801Z,100749.44
2022-10-26T14:50:02.360Z,100730.25
2022-10-26T14:55:10.461Z,100734.44
2022-10-26T15:00:38.632Z,100717.22
2022-10-26T15:05:40.767Z,100726.66
2022-10-26T15:10:42.342Z,100716.66
2022-10-26T15:15:47.061Z,100725.84
2022-10-26T15:26:36.548Z,100727.81
2022-10-26T15:31:38.839Z,100723.34
2022-10-26T15:36:41.816Z,100712.47
2022-10-26T15:41:47.638Z,100727.19
2022-10-26T15:53:13.514Z,100705.66
2022-10-26T16:10:26.576Z,100697.03
2022-10-26T16:15:28.104Z,100698.41
2022-10-26T16:26:08.061Z,100714.63
2022-10-26T16:31:15.171Z,100724.00
2022-10-26T16:36:17.095Z,100743.31
2022-10-26T16:41:18.897Z,100755.97
2022-10-26T16:46:21.822Z,100758.91
2022-10-26T16:51:29.538Z,100771.63
2022-10-26T16:56:31.164Z,100777.16
2022-10-26T17:01:33.675Z,100787.38
2022-10-26T17:06:37.833Z,100798.72
2022-10-26T17:11:40.173Z,100808.34
2022-10-26T17:16:41.882Z,100814.63
2022-10-26T17:21:44.443Z,100816.13
2022-10-26T17:26:46.027Z,100824.16
2022-10-26T17:31:47.812Z,100847.31
2022-10-26T17:36:49.548Z,100861.09
2022-10-26T17:41:51.106Z,100871.84
2022-10-26T17:46:52.689Z,100874.94
2022-10-26T17:51:54.407Z,100890.97
2022-10-26T17:56:56.028Z,100885.41
2022-10-26T18:01:57.694Z,100894.84
2022-10-26T18:06:59.343Z,100898.66
2022-10-26T18:12:00.895Z,100913.56
2022-10-26T18:17:02.464Z,100917.50
2022-10-26T18:22:04.295Z,100930.72
2022-10-26T18:27:06.038Z,100936.75
2022-10-26T18:32:07.834Z,100935.63
2022-10-26T18:37:09.386Z,100938.09
2022-10-26T18:42:10.926Z,100950.69
2022-10-26T18:47:12.515Z,100948.72
2022-10-26T18:52:14.290Z,100961.66
2022-10-26T18:57:16.134Z,100964.94
2022-10-26T19:02:17.731Z,100966.06
2022-10-26T19:07:19.693Z,100983.22
2022-10-26T19:12:21.480Z,100976.50
2022-10-26T19:17:23.289Z,100978.78
2022-10-26T19:22:24.995Z,100987.22
2022-10-26T19:27:26.666Z,100997.00
2022-10-26T19:32:28.966Z,100992.38
2022-10-26T19:49:17.067Z,100995.69
2022-10-26T20:17:18.902Z,101002.81
2022-10-26T20:28:12.275Z,101005.13
2022-10-26T20:38:52.655Z,101034.09
2022-10-26T21:14:06.521Z,101046.28
2022-10-26T21:19:08.488Z,101055.75
2022-10-26T21:24:10.105Z,101051.97
2022-10-26T21:29:17.185Z,101054.47
2022-10-26T21:34:18.966Z,101047.53
2022-10-26T21:39:20.649Z,101062.91
2022-10-26T21:44:38.756Z,101059.75
2022-10-26T21:49:42.628Z,101056.81
2022-10-26T21:54:44.431Z,101064.59
2022-10-26T21:59:46.129Z,101066.28
2022-10-26T22:04:48.072Z,101064.81
2022-10-26T22:10:07.840Z,101065.81
2022-10-26T22:15:11.613Z,101069.41
2022-10-26T22:20:13.377Z,101065.19
2022-10-26T22:25:15.115Z,101069.56
2022-10-26T22:30:16.861Z,101069.56
2022-10-26T22:35:28.997Z,101074.81
2022-10-26T22:40:31.031Z,101066.63
2022-10-26T22:45:32.781Z,101068.31
2022-10-26T22:50:34.470Z,101068.75
2022-10-26T22:55:36.215Z,101064.59
2022-10-26T23:00:37.965Z,101078.50
2022-10-26T23:05:46.030Z,101074.06
2022-10-26T23:10:47.784Z,101077.03
2022-10-26T23:15:49.552Z,101077.44
2022-10-26T23:20:52.257Z,101083.16
2022-10-26T23:25:54.126Z,101083.31
2022-10-26T23:30:55.908Z,101085.81
2022-10-26T23:35:57.808Z,101098.66
2022-10-26T23:41:02.608Z,101107.94
2022-10-26T23:46:04.808Z,101109.19
2022-10-26T23:51:06.564Z,101119.69
2022-10-26T23:56:08.335Z,101122.59
